createdAt,value
2024-01-15T00:02:23.389Z,-2.67
2024-01-15T00:04:50.266Z,-2.65
2024-01-15T00:07:17.410Z,-2.64
2024-01-15T00:09:44.269Z,-2.61
2024-01-15T00:12:11.194Z,-2.59
2024-01-15T00:14:38.317Z,-2.57
2024-01-15T00:17:05.236Z,-2.49
2024-01-15T00:19:39.394Z,-2.01
2024-01-15T00:22:06.239Z,-1.92
2024-01-15T00:24:33.152Z,-1.92
2024-01-15T00:27:00.158Z,-1.92
2024-01-15T00:29:27.149Z,-1.90
2024-01-15T00:31:54.036Z,-1.89
2024-01-15T00:34:21.097Z,-1.89
2024-01-15T00:36:48.191Z,-1.88
2024-01-15T00:39:15.585Z,-1.87
2024-01-15T00:41:42.098Z,-1.86
2024-01-15T00:44:08.846Z,-1.84
2024-01-15T00:46:48.355Z,-1.81
2024-01-15T00:49:15.676Z,-1.79
2024-01-15T00:51:43.145Z,-1.78
2024-01-15T00:54:10.194Z,-1.76
2024-01-15T00:56:37.376Z,-1.74
2024-01-15T00:59:04.243Z,-1.72
2024-01-15T01:01:31.151Z,-1.70
2024-01-15T01:03:58.445Z,-1.69
2024-01-15T01:06:25.708Z,-1.67
2024-01-15T01:08:52.533Z,-1.65
2024-01-15T01:11:19.507Z,-1.63
2024-01-15T01:13:46.388Z,-1.61
2024-01-15T01:16:13.331Z,-1.59
2024-01-15T01:18:40.390Z,-1.58
2024-01-15T01:21:07.625Z,-1.56
2024-01-15T01:23:34.510Z,-1.55
2024-01-15T01:26:01.424Z,-1.53
2024-01-15T01:28:28.928Z,-1.52
2024-01-15T01:30:56.023Z,-1.50
2024-01-15T01:33:23.428Z,-1.48
2024-01-15T01:35:50.456Z,-1.46
2024-01-15T01:38:17.587Z,-1.45
2024-01-15T01:40:44.561Z,-1.44
2024-01-15T01:43:11.715Z,-1.42
2024-01-15T01:45:39.363Z,-1.42
2024-01-15T01:48:06.877Z,-1.41
2024-01-15T01:50:33.953Z,-1.41
2024-01-15T01:53:01.647Z,-1.42
2024-01-15T01:55:29.077Z,-1.42
2024-01-15T01:57:56.299Z,-1.44
2024-01-15T02:00:23.421Z,-1.43
2024-01-15T02:02:50.623Z,-1.43
2024-01-15T02:05:19.340Z,-1.43
2024-01-15T02:07:46.184Z,-1.42
2024-01-15T02:10:13.001Z,-1.40
2024-01-15T02:12:40.041Z,-1.38
2024-01-15T02:15:06.969Z,-1.37
2024-01-15T02:17:33.788Z,-1.35
2024-01-15T02:20:00.659Z,-1.33
2024-01-15T02:22:27.756Z,-1.32
2024-01-15T02:24:54.603Z,-1.30
2024-01-15T02:27:21.518Z,-1.29
2024-01-15T02:29:48.565Z,-1.27
2024-01-15T02:32:15.388Z,-1.24
2024-01-15T02:34:42.247Z,-1.22
2024-01-15T02:37:09.195Z,-1.20
2024-01-15T02:39:35.908Z,-1.17
2024-01-15T02:42:02.563Z,-1.15
2024-01-15T02:44:29.513Z,-1.13
2024-01-15T02:46:56.198Z,-1.11
2024-01-15T02:49:22.980Z,-1.09
2024-01-15T02:51:49.990Z,-1.07
2024-01-15T02:54:16.917Z,-1.05
2024-01-15T02:56:43.819Z,-1.03
2024-01-15T02:59:10.978Z,-1.00
2024-01-15T03:01:37.976Z,-0.98
2024-01-15T03:04:04.880Z,-0.96
2024-01-15T03:06:31.791Z,-0.94
2024-01-15T03:08:58.485Z,-0.92
2024-01-15T03:11:25.512Z,-0.90
2024-01-15T03:13:52.254Z,-0.88
2024-01-15T03:16:20.631Z,-0.87
2024-01-15T03:18:47.601Z,-0.84
2024-01-15T03:21:14.469Z,-0.83
2024-01-15T03:23:41.281Z,-0.83
2024-01-15T03:26:08.115Z,-0.81
2024-01-15T03:28:34.834Z,-0.80
2024-01-15T03:31:01.928Z,-0.79
2024-01-15T03:33:29.425Z,-0.78
2024-01-15T03:35:56.343Z,-0.78
2024-01-15T03:38:23.979Z,-0.77
2024-01-15T03:40:50.786Z,-0.75
2024-01-15T03:43:17.630Z,-0.75
2024-01-15T03:45:44.501Z,-0.75
2024-01-15T03:48:11.543Z,-0.75
2024-01-15T03:50:38.369Z,-0.75
2024-01-15T03:53:05.103Z,-0.74
2024-01-15T03:55:32.976Z,-0.74
2024-01-15T03:58:00.330Z,-0.74
2024-01-15T04:00:27.294Z,-0.74
2024-01-15T04:02:54.727Z,-0.74
2024-01-15T04:05:21.478Z,-0.74
2024-01-15T04:07:48.309Z,-0.74
2024-01-15T04:10:15.153Z,-0.73
2024-01-15T04:12:42.553Z,-0.73
2024-01-15T04:15:09.753Z,-0.72
2024-01-15T04:17:37.018Z,-0.71
2024-01-15T04:20:04.471Z,-0.69
2024-01-15T04:22:31.304Z,-0.68
2024-01-15T04:24:58.202Z,-0.68
2024-01-15T04:27:25.130Z,-0.68
2024-01-15T04:29:52.040Z,-0.67
2024-01-15T04:32:18.782Z,-0.67
2024-01-15T04:34:46.054Z,-0.66
2024-01-15T04:37:14.633Z,-0.66
2024-01-15T04:39:41.422Z,-0.66
2024-01-15T04:42:08.415Z,-0.67
2024-01-15T04:44:35.374Z,-0.67
2024-01-15T04:47:02.313Z,-0.67
2024-01-15T04:49:30.231Z,-0.67
2024-01-15T04:51:57.189Z,-0.67
2024-01-15T04:54:24.306Z,-0.66
2024-01-15T04:56:51.228Z,-0.64
2024-01-15T04:59:18.495Z,-0.62
2024-01-15T05:01:45.376Z,-0.61
2024-01-15T05:04:12.477Z,-0.62
2024-01-15T05:06:39.647Z,-0.61
2024-01-15T05:09:06.495Z,-0.62
2024-01-15T05:11:33.403Z,-0.62
2024-01-15T05:14:00.077Z,-0.62
2024-01-15T05:16:26.629Z,-0.63
2024-01-15T05:18:53.297Z,-0.63
2024-01-15T05:21:19.958Z,-0.62
2024-01-15T05:23:46.692Z,-0.61
2024-01-15T05:26:13.438Z,-0.61
2024-01-15T05:28:43.261Z,-0.62
2024-01-15T05:31:10.361Z,-0.63
2024-01-15T05:33:38.066Z,-0.62
2024-01-15T05:36:05.922Z,-0.63
2024-01-15T05:38:32.623Z,-0.62
2024-01-15T05:40:59.297Z,-0.62
2024-01-15T05:43:25.944Z,-0.61
2024-01-15T05:45:52.699Z,-0.60
2024-01-15T05:48:19.903Z,-0.60
2024-01-15T05:50:46.872Z,-0.59
2024-01-15T05:53:13.615Z,-0.58
2024-01-15T05:55:40.701Z,-0.58
2024-01-15T05:58:07.815Z,-0.57
2024-01-15T06:00:35.991Z,-0.57
2024-01-15T06:03:02.911Z,-0.56
2024-01-15T06:05:29.911Z,-0.56
2024-01-15T06:07:56.726Z,-0.57
2024-01-15T06:10:23.591Z,-0.58
2024-01-15T06:12:50.712Z,-0.57
2024-01-15T06:15:17.911Z,-0.55
2024-01-15T06:17:44.995Z,-0.54
2024-01-15T06:20:12.693Z,-0.53
2024-01-15T06:22:40.030Z,-0.52
2024-01-15T06:25:10.288Z,-0.52
2024-01-15T06:27:37.152Z,-0.52
2024-01-15T06:30:04.964Z,-0.51
2024-01-15T06:32:32.499Z,-0.50
2024-01-15T06:34:59.373Z,-0.49
2024-01-15T06:37:26.330Z,-0.50
2024-01-15T06:39:53.031Z,-0.50
2024-01-15T06:42:22.483Z,-0.48
2024-01-15T06:44:49.316Z,-0.47
2024-01-15T06:47:17.986Z,-0.46
2024-01-15T06:49:44.878Z,-0.44
2024-01-15T06:52:12.894Z,-0.41
2024-01-15T06:54:39.865Z,-0.39
2024-01-15T06:57:07.586Z,-0.37
2024-01-15T06:59:36.198Z,-0.35
2024-01-15T07:02:03.447Z,-0.32
2024-01-15T07:04:30.520Z,-0.29
2024-01-15T07:06:57.402Z,-0.27
2024-01-15T07:09:24.297Z,-0.24
2024-01-15T07:11:52.064Z,-0.22
2024-01-15T07:14:18.948Z,-0.20
2024-01-15T07:16:48.603Z,-0.17
2024-01-15T07:19:16.162Z,-0.15
2024-01-15T07:21:43.765Z,-0.13
2024-01-15T07:24:11.239Z,-0.11
2024-01-15T07:26:38.668Z,-0.10
2024-01-15T07:29:05.580Z,-0.08
2024-01-15T07:31:33.440Z,-0.07
2024-01-15T07:34:00.837Z,-0.06
2024-01-15T07:36:27.785Z,-0.06
2024-01-15T07:38:54.814Z,-0.06
2024-01-15T07:41:21.637Z,-0.05
2024-01-15T07:43:48.600Z,-0.03
2024-01-15T07:46:15.586Z,0.02
2024-01-15T07:48:42.837Z,0.05
2024-01-15T07:51:09.721Z,0.07
2024-01-15T07:53:36.671Z,0.07
2024-01-15T07:56:03.626Z,0.06
2024-01-15T07:58:30.742Z,0.07
2024-01-15T08:00:58.159Z,0.07
2024-01-15T08:03:28.320Z,0.08
2024-01-15T08:05:58.089Z,0.10
2024-01-15T08:08:24.925Z,0.12
2024-01-15T08:10:53.635Z,0.13
2024-01-15T08:13:20.934Z,0.15
2024-01-15T08:15:47.556Z,0.16
2024-01-15T08:18:14.521Z,0.17
2024-01-15T08:20:41.799Z,0.17
2024-01-15T08:23:09.326Z,0.17
2024-01-15T08:25:38.665Z,0.18
2024-01-15T08:28:06.106Z,0.17
2024-01-15T08:30:33.247Z,0.16
2024-01-15T08:33:08.029Z,0.15
2024-01-15T08:35:41.482Z,0.12
2024-01-15T08:38:08.530Z,0.10
2024-01-15T08:41:28.463Z,0.09
2024-01-15T08:43:55.476Z,0.08
2024-01-15T08:46:22.412Z,0.07
2024-01-15T08:48:49.702Z,0.06
2024-01-15T08:51:16.536Z,0.04
2024-01-15T08:53:43.497Z,0.03
2024-01-15T08:56:10.477Z,0.02
2024-01-15T08:58:37.427Z,0.02
2024-01-15T09:01:04.603Z,0.03
2024-01-15T09:03:32.111Z,0.05
2024-01-15T09:05:59.341Z,0.06
2024-01-15T09:08:28.044Z,0.06
2024-01-15T09:10:55.021Z,0.08
2024-01-15T09:13:21.772Z,0.08
2024-01-15T09:15:48.877Z,0.08
2024-01-15T09:18:15.755Z,0.08
2024-01-15T09:20:42.696Z,0.08
2024-01-15T09:23:09.744Z,0.09
2024-01-15T09:25:36.796Z,0.10
2024-01-15T09:28:04.366Z,0.11
2024-01-15T09:30:31.748Z,0.12
2024-01-15T09:32:59.144Z,0.13
2024-01-15T09:35:26.110Z,0.13
2024-01-15T09:37:52.999Z,0.14
2024-01-15T09:40:20.002Z,0.15
2024-01-15T09:42:47.370Z,0.15
2024-01-15T09:45:14.709Z,0.17
2024-01-15T09:47:45.294Z,0.19
2024-01-15T09:50:14.329Z,0.21
2024-01-15T09:52:41.714Z,0.21
2024-01-15T09:55:09.094Z,0.20
2024-01-15T09:57:36.046Z,0.19
2024-01-15T10:00:07.369Z,0.20
2024-01-15T10:02:35.951Z,0.22
2024-01-15T10:05:03.529Z,0.24
2024-01-15T10:07:30.808Z,0.28
2024-01-15T10:09:58.131Z,0.32
2024-01-15T10:12:25.232Z,0.36
2024-01-15T10:14:57.513Z,0.39
2024-01-15T10:17:25.743Z,0.42
2024-01-15T10:19:52.890Z,0.43
2024-01-15T10:22:20.017Z,0.44
2024-01-15T10:24:49.907Z,0.45
2024-01-15T10:27:17.265Z,0.46
2024-01-15T10:29:44.395Z,0.50
2024-01-15T10:32:11.759Z,0.52
2024-01-15T10:34:40.674Z,0.54
2024-01-15T10:37:08.514Z,0.56
2024-01-15T10:39:35.469Z,0.58
2024-01-15T10:42:02.548Z,0.59
2024-01-15T10:44:30.064Z,0.61
2024-01-15T10:46:57.732Z,0.64
2024-01-15T10:49:30.722Z,0.68
2024-01-15T10:51:59.887Z,0.73
2024-01-15T10:54:28.302Z,0.74
2024-01-15T10:56:55.255Z,0.75
2024-01-15T10:59:23.221Z,0.76
2024-01-15T11:01:51.567Z,0.76
2024-01-15T11:04:19.809Z,0.76
2024-01-15T11:06:51.334Z,0.76
2024-01-15T11:09:19.218Z,0.73
2024-01-15T11:11:50.437Z,0.69
2024-01-15T11:14:46.945Z,0.68
2024-01-15T11:17:14.580Z,0.70
2024-01-15T11:19:48.686Z,0.72
2024-01-15T11:22:34.237Z,0.73
2024-01-15T11:25:13.703Z,0.73
2024-01-15T11:28:01.248Z,0.70
2024-01-15T11:30:28.443Z,0.69
2024-01-15T11:32:55.492Z,0.69
2024-01-15T11:35:25.579Z,0.68
2024-01-15T11:37:57.782Z,0.69
2024-01-15T11:40:33.926Z,0.70
2024-01-15T11:43:04.340Z,0.71
2024-01-15T11:45:31.750Z,0.75
2024-01-15T11:48:15.491Z,0.77
2024-01-15T11:50:47.580Z,0.79
2024-01-15T11:53:18.672Z,0.82
2024-01-15T11:55:46.458Z,0.85
2024-01-15T11:58:13.531Z,0.89
2024-01-15T12:00:45.227Z,0.92
2024-01-15T12:03:12.493Z,0.94
2024-01-15T12:05:39.985Z,0.95
2024-01-15T12:08:16.361Z,0.94
2024-01-15T12:10:43.679Z,0.92
2024-01-15T12:13:15.150Z,0.92
2024-01-15T12:15:43.508Z,0.92
2024-01-15T12:18:12.341Z,0.92
2024-01-15T12:20:40.370Z,0.92
2024-01-15T12:23:08.980Z,0.92
2024-01-15T12:25:36.812Z,0.89
2024-01-15T12:28:04.474Z,0.88
2024-01-15T12:30:34.400Z,0.89
2024-01-15T12:33:05.731Z,0.90
2024-01-15T12:35:34.115Z,0.91
2024-01-15T12:38:03.129Z,0.91
2024-01-15T12:40:31.188Z,0.90
2024-01-15T12:42:58.085Z,0.89
2024-01-15T12:45:24.923Z,0.89
2024-01-15T12:47:52.050Z,0.92
2024-01-15T12:50:24.800Z,0.95
2024-01-15T12:52:52.161Z,0.98
2024-01-15T12:55:19.077Z,1.01
2024-01-15T12:57:53.207Z,1.03
2024-01-15T13:00:20.679Z,1.04
2024-01-15T13:02:48.027Z,1.06
2024-01-15T13:05:15.951Z,1.07
2024-01-15T13:07:43.993Z,1.06
2024-01-15T13:10:12.516Z,1.04
2024-01-15T13:12:41.186Z,1.02
2024-01-15T13:15:12.507Z,1.00
2024-01-15T13:17:42.811Z,0.98
2024-01-15T13:20:11.598Z,0.94
2024-01-15T13:22:40.596Z,0.91
2024-01-15T13:25:08.468Z,0.86
2024-01-15T13:27:39.319Z,0.82
2024-01-15T13:30:08.804Z,0.78
2024-01-15T13:32:36.505Z,0.72
2024-01-15T13:35:07.678Z,0.68
2024-01-15T13:37:38.457Z,0.66
2024-01-15T13:40:07.977Z,0.63
2024-01-15T13:42:35.054Z,0.60
2024-01-15T13:45:02.086Z,0.55
2024-01-15T13:47:29.418Z,0.51
2024-01-15T13:49:56.343Z,0.46
2024-01-15T13:52:23.390Z,0.42
2024-01-15T13:54:51.193Z,0.38
2024-01-15T13:57:19.879Z,0.32
2024-01-15T13:59:46.767Z,0.29
2024-01-15T14:02:16.196Z,0.25
2024-01-15T14:04:45.434Z,0.23
2024-01-15T14:07:13.150Z,0.23
2024-01-15T14:09:40.122Z,0.24
2024-01-15T14:12:07.862Z,0.22
2024-01-15T14:14:34.961Z,0.19
2024-01-15T14:17:02.166Z,0.16
2024-01-15T14:19:29.705Z,0.12
2024-01-15T14:21:56.957Z,0.06
2024-01-15T14:24:24.273Z,-0.00
2024-01-15T14:26:51.371Z,-0.09
2024-01-15T14:29:21.209Z,-0.17
2024-01-15T14:31:48.596Z,-0.22
2024-01-15T14:34:16.869Z,-0.29
2024-01-15T14:36:44.238Z,-0.34
2024-01-15T14:39:11.446Z,-0.37
2024-01-15T14:41:38.379Z,-0.43
2024-01-15T14:44:05.626Z,-0.47
2024-01-15T14:46:32.791Z,-0.52
2024-01-15T14:49:00.077Z,-0.56
2024-01-15T14:51:27.331Z,-0.58
2024-01-15T14:53:55.355Z,-0.61
2024-01-15T14:56:22.341Z,-0.64
2024-01-15T14:58:49.692Z,-0.67
2024-01-15T15:01:17.176Z,-0.68
2024-01-15T15:03:45.002Z,-0.69
2024-01-15T15:06:13.172Z,-0.70
2024-01-15T15:08:42.241Z,-0.71
2024-01-15T15:11:11.691Z,-0.69
2024-01-15T15:13:45.086Z,-0.69
2024-01-15T15:16:13.822Z,-0.70
2024-01-15T15:18:43.645Z,-0.70
2024-01-15T15:21:11.983Z,-0.70
2024-01-15T15:23:39.889Z,-0.72
2024-01-15T15:26:06.731Z,-0.73
2024-01-15T15:28:37.065Z,-0.73
2024-01-15T15:31:13.830Z,-0.73
2024-01-15T15:33:41.275Z,-0.74
2024-01-15T15:36:08.547Z,-0.74
2024-01-15T15:38:35.439Z,-0.72
2024-01-15T15:41:02.744Z,-0.70
2024-01-15T15:43:30.103Z,-0.67
2024-01-15T15:46:00.993Z,-0.64
2024-01-15T15:48:28.334Z,-0.60
2024-01-15T15:50:56.277Z,-0.56
2024-01-15T15:53:23.545Z,-0.53
2024-01-15T15:55:50.600Z,-0.51
2024-01-15T15:58:17.620Z,-0.49
2024-01-15T16:00:44.991Z,-0.46
2024-01-15T16:03:12.175Z,-0.44
2024-01-15T16:05:45.725Z,-0.44
2024-01-15T16:08:19.460Z,-0.42
2024-01-15T16:10:47.012Z,-0.42
2024-01-15T16:13:14.465Z,-0.42
2024-01-15T16:15:41.371Z,-0.40
2024-01-15T16:23:18.987Z,-0.39
2024-01-15T16:23:33.411Z,-0.40
2024-01-15T16:24:08.115Z,-0.41
2024-01-15T16:26:31.429Z,-0.41
2024-01-15T16:29:01.677Z,-0.40
2024-01-15T16:31:30.203Z,-0.39
2024-01-15T16:34:02.085Z,-0.36
2024-01-15T16:36:32.955Z,-0.33
2024-01-15T16:39:00.036Z,-0.32
2024-01-15T16:41:27.173Z,-0.31
2024-01-15T16:43:54.371Z,-0.32
2024-01-15T16:46:21.363Z,-0.31
2024-01-15T16:48:50.960Z,-0.28
2024-01-15T16:51:20.039Z,-0.27
2024-01-15T16:53:47.168Z,-0.25
2024-01-15T16:56:15.331Z,-0.23
2024-01-15T16:58:42.389Z,-0.23
2024-01-15T17:01:09.605Z,-0.24
2024-01-15T17:03:36.884Z,-0.24
2024-01-15T17:06:05.084Z,-0.24
2024-01-15T17:08:32.575Z,-0.23
2024-01-15T17:11:03.657Z,-0.22
2024-01-15T17:13:30.823Z,-0.23
2024-01-15T17:15:59.406Z,-0.24
2024-01-15T17:18:26.514Z,-0.24
2024-01-15T17:20:54.404Z,-0.23
2024-01-15T17:23:21.637Z,-0.24
2024-01-15T17:25:48.887Z,-0.25
2024-01-15T17:28:15.778Z,-0.24
2024-01-15T17:30:43.229Z,-0.25
2024-01-15T17:33:10.202Z,-0.26
2024-01-15T17:35:37.269Z,-0.28
2024-01-15T17:38:05.008Z,-0.30
2024-01-15T17:40:32.139Z,-0.32
2024-01-15T17:42:59.281Z,-0.33
2024-01-15T17:45:27.428Z,-0.33
2024-01-15T17:47:54.561Z,-0.36
2024-01-15T17:50:22.005Z,-0.37
2024-01-15T17:52:49.104Z,-0.37
2024-01-15T17:55:16.790Z,-0.36
2024-01-15T17:57:43.986Z,-0.36
2024-01-15T18:00:11.813Z,-0.36
2024-01-15T18:02:39.059Z,-0.36
2024-01-15T18:05:06.784Z,-0.35
2024-01-15T18:07:34.194Z,-0.35
2024-01-15T18:10:01.344Z,-0.35
2024-01-15T18:12:28.688Z,-0.35
2024-01-15T18:14:55.920Z,-0.34
2024-01-15T18:17:23.985Z,-0.33
2024-01-15T18:19:51.153Z,-0.32
2024-01-15T18:22:19.218Z,-0.31
2024-01-15T18:24:46.787Z,-0.30
2024-01-15T18:27:13.930Z,-0.30
2024-01-15T18:29:40.969Z,-0.30
2024-01-15T18:32:08.160Z,-0.30
2024-01-15T18:34:35.435Z,-0.31
2024-01-15T18:37:05.196Z,-0.29
2024-01-15T18:39:32.144Z,-0.28
2024-01-15T18:41:59.422Z,-0.26
2024-01-15T18:44:26.355Z,-0.23
2024-01-15T18:46:53.373Z,-0.21
2024-01-15T18:49:21.612Z,-0.17
2024-01-15T18:51:53.748Z,-0.11
2024-01-15T18:54:22.110Z,-0.05
2024-01-15T18:56:49.144Z,0.00
2024-01-15T18:59:16.475Z,0.06
2024-01-15T19:01:44.392Z,0.12
2024-01-15T19:04:12.521Z,0.17
2024-01-15T19:06:41.935Z,0.22
2024-01-15T19:09:15.161Z,0.28
2024-01-15T19:11:42.341Z,0.34
2024-01-15T19:14:09.564Z,0.38
2024-01-15T19:16:36.708Z,0.43
2024-01-15T19:19:03.894Z,0.47
2024-01-15T19:21:33.780Z,0.50
2024-01-15T19:24:03.075Z,0.52
2024-01-15T19:26:30.474Z,0.54
2024-01-15T19:28:57.583Z,0.54
2024-01-15T19:31:30.105Z,0.55
2024-01-15T19:34:00.702Z,0.56
2024-01-15T19:36:28.131Z,0.58
2024-01-15T19:38:55.381Z,0.60
2024-01-15T19:41:34.042Z,0.60
2024-01-15T19:44:06.728Z,0.61
2024-01-15T19:46:34.904Z,0.61
2024-01-15T19:49:03.734Z,0.61
2024-01-15T19:51:31.014Z,0.63
2024-01-15T19:53:58.047Z,0.65
2024-01-15T19:56:25.659Z,0.66
2024-01-15T19:58:52.751Z,0.68
2024-01-15T20:01:19.711Z,0.71
2024-01-15T20:03:47.922Z,0.74
2024-01-15T20:06:15.465Z,0.76
2024-01-15T20:08:44.858Z,0.78
2024-01-15T20:11:11.945Z,0.79
2024-01-15T20:13:40.466Z,0.79
2024-01-15T20:16:14.112Z,0.80
2024-01-15T20:18:41.846Z,0.81
2024-01-15T20:21:09.372Z,0.82
2024-01-15T20:23:43.144Z,0.83
2024-01-15T20:26:17.873Z,0.86
2024-01-15T20:28:47.891Z,0.88
2024-01-15T20:31:14.992Z,0.90
2024-01-15T20:33:44.106Z,0.92
2024-01-15T20:36:12.839Z,0.95
2024-01-15T20:38:40.161Z,0.99
2024-01-15T20:41:07.739Z,1.01
2024-01-15T20:51:30.161Z,1.24
2024-01-15T20:53:58.255Z,1.25
2024-01-15T20:56:25.420Z,1.29
2024-01-15T20:58:52.693Z,1.32
2024-01-15T21:01:25.437Z,1.34
2024-01-15T21:03:58.633Z,1.35
2024-01-15T21:06:28.209Z,1.38
2024-01-15T21:08:55.283Z,1.40
2024-01-15T21:11:31.793Z,1.44
2024-01-15T21:14:01.213Z,1.49
2024-01-15T21:16:28.208Z,1.52
2024-01-15T21:18:55.306Z,1.55
2024-01-15T21:21:24.592Z,1.56
2024-01-15T21:23:57.028Z,1.57
2024-01-15T21:26:40.265Z,1.59
2024-01-15T21:29:07.283Z,1.61
2024-01-15T21:31:38.649Z,1.63
2024-01-15T21:34:05.670Z,1.66
2024-01-15T21:36:32.850Z,1.68
2024-01-15T21:38:59.904Z,1.71
2024-01-15T21:41:26.901Z,1.74
2024-01-15T21:43:53.992Z,1.78
2024-01-15T21:46:20.940Z,1.81
2024-01-15T21:48:48.423Z,1.83
2024-01-15T21:51:18.111Z,1.85
2024-01-15T21:53:45.073Z,1.86
2024-01-15T21:56:13.082Z,1.86
2024-01-15T21:58:40.168Z,1.87
2024-01-15T22:01:09.561Z,1.88
2024-01-15T22:03:36.847Z,1.87
2024-01-15T22:06:04.595Z,1.87
2024-01-15T22:08:31.581Z,1.88
2024-01-15T22:10:58.291Z,1.88
2024-01-15T22:13:25.228Z,1.87
2024-01-15T22:15:52.479Z,1.87
2024-01-15T22:18:19.459Z,1.86
2024-01-15T22:20:46.683Z,1.85
2024-01-15T22:23:13.662Z,1.84
2024-01-15T22:25:40.895Z,1.82
2024-01-15T22:28:07.711Z,1.81
2024-01-15T22:30:34.555Z,1.79
2024-01-15T22:33:01.406Z,1.77
2024-01-15T22:35:28.661Z,1.75
2024-01-15T22:37:55.731Z,1.73
2024-01-15T22:40:22.710Z,1.72
2024-01-15T22:42:49.724Z,1.71
2024-01-15T22:45:17.570Z,1.70
2024-01-15T22:47:44.750Z,1.70
2024-01-15T22:50:22.785Z,1.71
2024-01-15T22:52:49.650Z,1.73
2024-01-15T22:55:16.718Z,1.74
2024-01-15T22:57:43.662Z,1.75
2024-01-15T23:00:20.509Z,1.76
2024-01-15T23:02:49.190Z,1.76
2024-01-15T23:05:18.718Z,1.76
2024-01-15T23:07:46.589Z,1.76
2024-01-15T23:10:14.763Z,1.78
2024-01-15T23:12:41.617Z,1.78
2024-01-15T23:15:23.501Z,1.79
2024-01-15T23:17:54.523Z,1.80
2024-01-15T23:20:21.954Z,1.80
2024-01-15T23:22:52.747Z,1.81
2024-01-15T23:25:19.584Z,1.82
2024-01-15T23:27:46.524Z,1.83
2024-01-15T23:30:13.465Z,1.84
2024-01-15T23:32:40.714Z,1.84
2024-01-15T23:35:08.101Z,1.83
2024-01-15T23:37:36.145Z,1.82
2024-01-15T23:40:07.193Z,1.83
2024-01-15T23:42:34.243Z,1.85
2024-01-15T23:45:01.156Z,1.85
2024-01-15T23:47:28.007Z,1.82
2024-01-15T23:49:55.082Z,1.80
2024-01-15T23:52:21.836Z,1.78
2024-01-15T23:54:48.459Z,1.76
2024-01-15T23:57:15.395Z,1.75
2024-01-15T23:59:42.358Z,1.76
